Time;durP1;ratioP1;P1;durP2;ratioP2;P2;SDS_P1;SDS_P2;PMS_P1;PMS_P2;Temp;Humidity;BMP_temperature;BMP_pressure;BME280_temperature;BME280_humidity;BME280_pressure;Samples;Min_cycle;Max_cycle;Signal;HPM_P1;HPM_P2
2023/03/31 00:01:00;;;;;;;5.20;1.70;;;12.20;68.50;;;15.15;45.80;96990.84;5060012;28;20041;-51
2023/03/31 00:03:28;;;;;;;8.60;2.10;;;12.20;68.60;;;15.19;45.71;96987.75;5062289;28;20048;-50
2023/03/31 00:05:57;;;;;;;4.60;1.73;;;12.20;68.30;;;15.19;45.69;96982.41;5062232;28;20059;-52
2023/03/31 00:08:28;;;;;;;3.92;1.90;;;12.20;68.30;;;15.20;45.61;96984.88;5059067;28;20502;-51
2023/03/31 00:11:01;;;;;;;5.72;1.90;;;12.20;68.20;;;15.13;45.61;96976.81;5059438;28;20060;-54
2023/03/31 00:13:30;;;;;;;4.07;1.40;;;12.20;68.40;;;15.10;45.55;96973.72;5061026;28;20045;-49
2023/03/31 00:16:01;;;;;;;5.82;2.22;;;12.10;69.20;;;15.11;45.77;96973.53;5060968;28;20060;-51
2023/03/31 00:18:29;;;;;;;5.95;2.08;;;12.20;68.50;;;15.08;45.67;96970.44;5057945;28;20052;-52
2023/03/31 00:21:13;;;;;;;3.55;2.17;;;12.20;68.30;;;15.08;45.65;96965.06;5059216;28;20037;-52
2023/03/31 00:23:41;;;;;;;2.30;1.48;;;12.10;68.40;;;15.10;45.53;96963.84;5062125;28;20044;-52
2023/03/31 00:26:08;;;;;;;2.10;1.40;;;12.10;68.40;;;15.10;45.67;96957.63;5060500;28;20044;-55
2023/03/31 00:28:36;;;;;;;5.10;3.00;;;12.10;68.50;;;15.09;45.69;96946.09;5059072;28;20441;-54
2023/03/31 00:31:03;;;;;;;4.38;1.50;;;12.10;68.30;;;15.10;45.78;96946.91;5042069;28;20053;-54
2023/03/31 00:33:31;;;;;;;5.50;1.73;;;12.20;68.10;;;15.18;45.57;96948.56;5061871;28;20476;-51
2023/03/31 00:36:00;;;;;;;2.78;1.65;;;12.30;68.20;;;15.21;45.47;96938.25;5060413;28;20072;-52
2023/03/31 00:38:29;;;;;;;5.43;1.80;;;12.30;68.00;;;15.24;45.47;96939.72;5058962;28;20044;-52
2023/03/31 00:40:58;;;;;;;3.22;1.75;;;12.30;67.80;;;15.25;45.37;96928.75;5057634;28;20402;-52
2023/03/31 00:43:34;;;;;;;3.88;1.70;;;12.30;67.80;;;15.29;45.40;96918.44;5060491;28;20056;-48
2023/03/31 00:46:23;;;;;;;3.20;1.33;;;12.30;67.70;;;15.23;45.45;96914.72;5042894;28;20059;-49
2023/03/31 00:48:56;;;;;;;3.10;1.83;;;12.40;66.90;;;15.24;44.85;96918.25;5035830;28;20049;-54
2023/03/31 00:51:28;;;;;;;4.22;1.70;;;12.40;66.80;;;15.23;45.26;96927.31;5049495;28;20048;-53
2023/03/31 00:54:00;;;;;;;4.70;1.77;;;12.40;66.50;;;15.21;45.27;96918.66;5056769;28;20066;-53
2023/03/31 00:56:34;;;;;;;4.32;1.60;;;12.40;66.40;;;15.27;44.91;96920.50;5051521;28;20041;-52
2023/03/31 00:59:06;;;;;;;3.35;1.77;;;12.40;66.60;;;15.32;44.91;96901.94;5058038;28;20064;-50
2023/03/31 01:01:35;;;;;;;6.78;2.13;;;12.50;66.40;;;15.35;44.83;96907.72;5062939;28;20063;-48
2023/03/31 01:04:06;;;;;;;5.82;1.70;;;12.40;66.20;;;15.32;44.98;96905.44;5046209;28;20520;-51
2023/03/31 01:06:56;;;;;;;4.25;1.58;;;12.40;66.10;;;15.36;45.05;96892.44;5042773;28;20044;-48
2023/03/31 01:09:24;;;;;;;7.47;2.50;;;12.50;66.50;;;15.38;44.69;96881.50;5052511;28;20044;-48
2023/03/31 01:11:52;;;;;;;6.00;1.70;;;12.50;66.10;;;15.41;44.77;96887.28;5061852;28;20049;-49
2023/03/31 01:14:19;;;;;;;5.15;1.52;;;12.50;65.80;;;15.42;44.53;96882.75;5064104;28;20044;-51
2023/03/31 01:16:47;;;;;;;3.75;1.65;;;12.60;65.30;;;15.28;44.63;96880.09;5064323;28;20619;-52
2023/03/31 01:19:48;;;;;;;4.20;1.77;;;12.60;64.80;;;15.40;44.63;96879.44;5062705;28;20037;-52
2023/03/31 01:22:44;;;;;;;5.63;3.30;;;12.60;64.70;;;15.32;44.54;96861.72;5063206;28;20045;-53
2023/03/31 01:25:20;;;;;;;5.63;2.53;;;12.60;64.60;;;15.26;44.47;96857.22;5061863;28;20051;-49
2023/03/31 01:28:14;;;;;;;3.35;1.50;;;12.50;64.70;;;15.27;44.42;96856.97;5044006;28;20441;-53
2023/03/31 01:31:33;;;;;;;3.10;1.60;;;12.50;64.70;;;15.28;44.37;96858.63;5051968;28;20057;-53
2023/03/31 01:34:23;;;;;;;9.07;1.95;;;12.50;64.00;;;15.34;44.20;96859.66;5058560;28;20048;-52
2023/03/31 01:37:15;;;;;;;5.38;1.65;;;12.50;64.70;;;15.18;44.52;96863.63;5064155;28;20048;-50
2023/03/31 01:40:13;;;;;;;3.25;1.80;;;12.50;64.60;;;15.32;44.38;96862.53;5056041;28;20421;-53
2023/03/31 01:42:51;;;;;;;6.30;2.15;;;12.50;64.80;;;15.34;44.42;96847.06;5054199;28;20045;-51
2023/03/31 01:45:38;;;;;;;4.20;1.85;;;12.50;65.30;;;15.36;44.61;96849.53;5062867;28;20040;-53
2023/03/31 01:48:20;;;;;;;4.00;2.75;;;12.50;65.30;;;15.36;44.49;96847.66;5062523;28;20044;-51
2023/03/31 01:50:55;;;;;;;5.22;1.80;;;12.40;65.20;;;15.38;44.59;96857.38;5040705;28;20050;-52
2023/03/31 01:53:40;;;;;;;7.80;1.92;;;12.50;66.20;;;15.43;44.91;96857.56;5062546;28;20056;-51
2023/03/31 01:56:47;;;;;;;5.60;1.67;;;12.50;67.00;;;15.40;45.27;96860.66;5063495;28;20064;-52
2023/03/31 01:59:33;;;;;;;6.45;2.10;;;12.50;68.30;;;15.39;45.14;96864.38;5043963;28;20425;-51
2023/03/31 02:02:18;;;;;;;3.28;1.67;;;12.40;67.80;;;15.31;45.54;96860.06;5047271;28;20045;-54
2023/03/31 02:04:55;;;;;;;6.60;1.80;;;12.30;69.20;;;15.21;45.47;96857.00;5045430;28;20060;-52
2023/03/31 02:07:47;;;;;;;4.07;1.50;;;12.30;67.70;;;15.22;45.50;96853.28;5047401;28;20041;-53
2023/03/31 02:10:17;;;;;;;5.32;2.25;;;12.30;67.20;;;15.18;45.50;96842.16;5036333;28;20493;-52
2023/03/31 02:12:47;;;;;;;2.58;1.65;;;12.30;67.60;;;15.02;46.12;96842.59;5060328;28;20045;-51
2023/03/31 02:15:24;;;;;;;3.97;1.50;;;12.20;69.50;;;15.12;46.14;96843.81;5061336;28;20057;-53
2023/03/31 02:17:57;;;;;;;6.45;1.80;;;12.20;69.40;;;15.18;46.01;96828.75;5063514;28;20055;-52
2023/03/31 02:20:28;;;;;;;5.20;1.75;;;12.20;69.30;;;15.20;45.75;96825.84;5035669;28;20061;-51
2023/03/31 02:22:57;;;;;;;1.45;1.20;;;12.20;69.20;;;15.23;46.01;96822.75;5058910;28;20539;-53
2023/03/31 02:25:34;;;;;;;5.15;1.60;;;12.20;69.80;;;15.19;46.09;96821.53;5062883;28;20044;-53
2023/03/31 02:28:11;;;;;;;3.45;1.58;;;12.20;69.90;;;15.18;46.08;96814.50;5046652;28;20052;-54
2023/03/31 02:31:08;;;;;;;2.95;1.33;;;12.10;70.10;;;15.15;46.05;96808.53;5039852;28;20053;-54
2023/03/31 02:33:36;;;;;;;3.75;2.00;;;12.10;70.10;;;15.18;46.02;96799.28;5038097;28;20429;-53
2023/03/31 02:36:05;;;;;;;3.90;1.60;;;12.10;70.10;;;15.11;46.23;96796.59;5060306;28;20060;-51
2023/03/31 02:38:40;;;;;;;3.17;1.50;;;12.10;70.50;;;15.05;46.43;96781.34;5064436;28;20371;-51
2023/03/31 02:41:09;;;;;;;5.22;1.50;;;12.10;70.90;;;15.07;46.57;96781.16;5045895;28;20056;-50
2023/03/31 02:43:36;;;;;;;5.35;2.75;;;12.00;71.10;;;15.08;46.56;96770.22;5059012;28;20041;-52
2023/03/31 02:46:04;;;;;;;4.28;1.50;;;12.00;71.10;;;15.10;46.92;96753.91;5059130;28;20529;-53
2023/03/31 02:48:39;;;;;;;2.38;1.83;;;12.00;71.70;;;15.11;46.84;96742.16;5062603;28;20060;-52
2023/03/31 02:51:09;;;;;;;5.13;1.58;;;12.00;71.90;;;15.12;46.75;96727.72;5045214;28;20075;-50
2023/03/31 02:53:46;;;;;;;;;;;12.10;71.60;;;15.24;46.29;96725.22;5058033;28;20048;-51
2023/03/31 02:56:58;;;;;;;3.78;1.90;;;12.10;72.30;;;15.19;46.42;96720.47;5060356;28;19920;-51
2023/03/31 02:59:38;;;;;;;3.88;1.90;;;12.10;72.30;;;15.19;46.63;96712.44;5060505;28;20084;-53
2023/03/31 03:02:26;;;;;;;3.23;1.60;;;12.10;72.40;;;15.18;46.94;96712.63;5058474;28;20045;-51
2023/03/31 03:05:24;;;;;;;4.37;1.90;;;12.10;72.20;;;15.12;46.80;96692.84;5062394;28;20049;-49
2023/03/31 03:08:34;;;;;;;4.97;1.70;;;12.10;72.60;;;15.07;47.20;96673.94;5017756;28;20115;-49
2023/03/31 03:11:31;;;;;;;4.45;2.10;;;12.10;72.70;;;15.04;47.03;96663.63;5045893;28;20505;-53
2023/03/31 03:14:22;;;;;;;5.25;1.95;;;12.00;73.10;;;15.07;47.20;96657.84;5038617;28;20052;-51
2023/03/31 03:17:21;;;;;;;4.65;2.95;;;12.00;73.10;;;14.99;47.32;96645.50;5053324;28;20045;-51
2023/03/31 03:19:57;;;;;;;5.63;2.70;;;12.00;73.20;;;14.96;47.48;96637.88;5047108;28;20052;-51
2023/03/31 03:22:25;;;;;;;8.00;2.57;;;11.90;73.60;;;14.89;47.55;96624.53;5062199;28;20063;-54
2023/03/31 03:24:53;;;;;;;8.13;2.25;;;11.80;73.80;;;14.81;47.77;96622.09;5062437;28;20052;-51
2023/03/31 03:27:23;;;;;;;3.67;1.98;;;11.80;74.30;;;14.78;47.73;96619.84;5061074;28;20045;-52
2023/03/31 03:29:50;;;;;;;3.10;2.10;;;11.70;74.50;;;14.73;47.91;96625.84;5059595;28;20041;-51
2023/03/31 03:32:18;;;;;;;4.97;1.90;;;11.60;75.80;;;14.69;47.70;96619.25;5059886;28;20056;-54
2023/03/31 03:34:46;;;;;;;6.25;2.13;;;11.50;75.40;;;14.64;48.13;96610.22;5062155;28;20048;-51
2023/03/31 03:37:13;;;;;;;6.50;2.33;;;11.50;75.80;;;14.63;48.31;96600.53;5061837;28;20052;-54
2023/03/31 03:39:41;;;;;;;4.47;2.10;;;11.50;75.80;;;14.60;48.33;96592.91;5059588;28;20045;-52
2023/03/31 03:42:08;;;;;;;5.47;2.30;;;11.40;76.00;;;14.61;48.21;96589.22;5059472;28;20045;-50
2023/03/31 03:44:36;;;;;;;4.60;2.40;;;11.50;75.60;;;14.63;48.21;96579.09;5063089;28;20051;-54
2023/03/31 03:47:03;;;;;;;4.47;2.20;;;11.50;75.30;;;14.66;48.18;96566.13;5062958;28;20096;-51
2023/03/31 03:49:31;;;;;;;4.37;2.40;;;11.60;75.10;;;14.70;47.88;96558.47;5056402;28;20045;-52
2023/03/31 03:51:58;;;;;;;4.57;2.23;;;11.60;75.10;;;14.67;48.03;96546.31;5058453;28;20045;-52
2023/03/31 03:54:26;;;;;;;5.37;2.17;;;11.60;75.10;;;14.69;48.03;96535.38;5061982;28;20441;-54
2023/03/31 03:56:54;;;;;;;5.23;2.57;;;11.60;74.60;;;14.61;48.15;96523.06;5062687;28;20053;-49
2023/03/31 03:59:21;;;;;;;4.97;2.20;;;11.60;74.20;;;14.55;48.24;96511.31;5060812;28;20566;-51
2023/03/31 04:01:49;;;;;;;7.50;2.43;;;11.60;74.50;;;14.53;48.03;96509.91;5059164;28;20037;-50
2023/03/31 04:04:17;;;;;;;6.27;2.33;;;11.50;74.60;;;14.45;48.20;96491.41;5059125;28;20037;-49
2023/03/31 04:06:45;;;;;;;6.07;2.50;;;11.50;74.50;;;14.42;48.45;96491.81;5061075;28;20497;-52
2023/03/31 04:09:12;;;;;;;5.43;2.60;;;11.50;75.60;;;14.34;48.59;96488.34;5061804;28;20044;-54
2023/03/31 04:11:40;;;;;;;4.77;2.40;;;11.40;75.70;;;14.29;48.74;96490.03;5059123;28;20366;-53
2023/03/31 04:14:07;;;;;;;4.82;2.20;;;11.40;75.70;;;14.28;48.83;96491.88;5059116;28;20053;-49
2023/03/31 04:16:35;;;;;;;5.80;2.77;;;11.30;76.30;;;14.29;48.85;96488.19;5050145;28;20120;-51
2023/03/31 04:19:03;;;;;;;7.80;3.07;;;11.40;76.20;;;14.30;49.00;96489.00;5059182;28;20053;-53
2023/03/31 04:21:33;;;;;;;6.15;2.60;;;11.40;76.50;;;14.32;49.05;96497.63;5062178;28;20041;-50
2023/03/31 04:24:03;;;;;;;5.47;2.67;;;11.40;76.50;;;14.34;49.20;96493.69;5061940;28;20047;-51
2023/03/31 04:26:42;;;;;;;5.03;2.87;;;11.40;76.40;;;14.36;49.04;96485.47;5059317;28;20104;-52
2023/03/31 04:29:13;;;;;;;3.93;2.80;;;11.50;76.30;;;14.37;49.19;96485.25;5059330;28;20092;-53
2023/03/31 04:31:42;;;;;;;4.47;2.95;;;11.50;76.70;;;14.37;49.25;96481.75;5062415;28;20040;-54
2023/03/31 04:34:13;;;;;;;5.17;2.83;;;11.40;76.70;;;14.38;49.34;96472.69;5060696;28;20417;-54
2023/03/31 04:36:48;;;;;;;5.40;2.93;;;11.40;76.90;;;14.43;48.93;96474.72;5061944;28;20040;-52
2023/03/31 04:39:25;;;;;;;5.05;3.30;;;11.50;77.10;;;14.47;49.26;96470.59;5063596;28;20052;-53
2023/03/31 04:41:53;;;;;;;6.03;3.43;;;11.50;76.90;;;14.54;49.15;96471.38;5066038;28;20053;-50
2023/03/31 04:44:21;;;;;;;6.13;3.40;;;11.60;76.90;;;14.55;49.25;96460.44;5064500;28;20045;-51
2023/03/31 04:46:48;;;;;;;6.00;3.70;;;11.50;77.10;;;14.55;49.21;96455.06;5063071;28;20041;-50
2023/03/31 04:49:16;;;;;;;5.03;2.67;;;11.60;76.80;;;14.58;49.21;96453.88;5063796;28;20045;-48
2023/03/31 04:51:44;;;;;;;4.32;2.63;;;11.60;77.00;;;14.57;49.34;96476.31;5066054;28;20056;-51
2023/03/31 04:54:11;;;;;;;7.35;3.45;;;11.60;77.20;;;14.59;49.32;96476.94;5065584;28;20044;-50
2023/03/31 04:56:39;;;;;;;6.33;3.13;;;11.60;77.50;;;14.45;50.01;96489.53;5061541;28;20048;-51
2023/03/31 04:59:07;;;;;;;5.43;3.03;;;11.50;78.60;;;14.50;49.92;96457.59;5062737;28;20060;-58
2023/03/31 05:01:35;;;;;;;8.10;3.20;;;11.50;79.60;;;14.52;50.12;96471.59;5065955;28;20051;-52
2023/03/31 05:04:04;;;;;;;7.93;2.90;;;11.50;81.10;;;14.53;50.40;96473.22;5065666;28;20420;-51
2023/03/31 05:06:32;;;;;;;5.37;2.50;;;11.50;81.10;;;14.55;50.54;96473.00;5062927;28;20049;-50
2023/03/31 05:09:00;;;;;;;5.70;3.27;;;11.50;81.60;;;14.51;50.60;96469.94;5062574;28;20044;-49
2023/03/31 05:11:27;;;;;;;7.13;2.97;;;11.40;82.60;;;14.48;50.84;96482.94;5064573;28;20053;-52
2023/03/31 05:13:55;;;;;;;6.43;3.37;;;11.40;83.30;;;14.39;51.44;96487.72;5065161;28;20045;-53
2023/03/31 05:16:23;;;;;;;4.80;2.97;;;11.30;86.10;;;14.30;51.61;96503.19;5064208;28;20047;-51
2023/03/31 05:18:50;;;;;;;6.53;3.17;;;11.20;87.10;;;14.25;52.31;96515.56;5062630;28;20052;-51
2023/03/31 05:21:20;;;;;;;6.30;3.13;;;11.20;92.50;;;14.23;52.68;96513.13;5061402;28;20055;-51
2023/03/31 05:23:48;;;;;;;8.87;4.47;;;11.20;96.60;;;14.11;53.37;96517.47;5065287;28;20044;-49
2023/03/31 05:26:16;;;;;;;8.27;3.60;;;11.10;99.90;;;14.14;53.27;96515.19;5065026;28;20055;-49
2023/03/31 05:28:43;;;;;;;8.97;4.17;;;11.00;99.90;;;13.98;53.93;96508.47;5060830;28;20059;-49
2023/03/31 05:31:11;;;;;;;9.25;3.55;;;10.90;99.90;;;13.94;54.15;96493.88;5062148;28;20037;-51
2023/03/31 05:33:40;;;;;;;7.33;3.80;;;10.80;99.90;;;13.76;54.68;96480.31;5052552;28;20422;-51
2023/03/31 05:36:11;;;;;;;7.60;3.80;;;10.80;99.90;;;13.77;55.13;96471.28;5057454;28;20053;-54
2023/03/31 05:38:40;;;;;;;9.43;4.43;;;10.70;99.90;;;13.83;54.95;96459.75;5054083;28;20040;-54
2023/03/31 05:41:09;;;;;;;7.07;4.10;;;10.70;99.90;;;13.80;55.08;96462.81;5061863;28;20080;-53
2023/03/31 05:43:38;;;;;;;6.60;4.07;;;10.80;99.90;;;13.86;54.83;96461.16;5061558;28;20603;-51
2023/03/31 05:46:06;;;;;;;8.67;4.10;;;10.70;99.90;;;13.82;55.36;96458.09;5061380;28;20048;-51
2023/03/31 05:48:36;;;;;;;9.63;4.67;;;10.70;99.90;;;13.79;55.60;96464.69;5063997;28;20482;-52
2023/03/31 05:51:04;;;;;;;9.77;5.00;;;10.70;99.90;;;13.79;55.60;96453.16;5065109;28;20048;-50
2023/03/31 05:53:32;;;;;;;8.10;4.20;;;10.70;99.90;;;13.82;55.86;96431.34;5061847;28;20044;-50
2023/03/31 05:56:03;;;;;;;10.87;4.67;;;10.70;99.90;;;13.83;55.76;96438.34;5060480;28;20088;-54
2023/03/31 05:58:32;;;;;;;8.33;5.10;;;10.70;99.90;;;13.87;55.75;96426.19;5063729;28;20049;-53
2023/03/31 06:01:09;;;;;;;9.93;5.03;;;10.70;99.90;;;13.90;55.55;96412.38;5063937;28;20055;-52
2023/03/31 06:03:41;;;;;;;9.67;5.10;;;10.70;99.90;;;13.94;55.47;96410.13;5060149;28;20045;-54
2023/03/31 06:06:11;;;;;;;7.73;4.67;;;10.70;99.90;;;13.91;55.79;96400.63;5061444;28;20517;-51
2023/03/31 06:08:40;;;;;;;9.53;5.00;;;10.70;99.90;;;13.90;55.90;96398.16;5063612;28;20505;-52
2023/03/31 06:11:11;;;;;;;10.97;5.87;;;10.70;99.90;;;13.88;56.19;96398.41;5064711;28;20040;-49
2023/03/31 06:13:40;;;;;;;8.40;5.27;;;10.70;99.90;;;13.90;55.84;96401.69;5060903;28;20426;-53
2023/03/31 06:16:09;;;;;;;8.83;4.87;;;10.70;99.90;;;13.91;55.87;96381.91;5061228;28;20352;-54
2023/03/31 06:18:38;;;;;;;8.67;4.87;;;10.80;99.90;;;13.92;55.85;96370.19;5063989;28;20049;-53
2023/03/31 06:21:06;;;;;;;10.47;5.00;;;10.80;99.90;;;13.97;55.73;96369.53;5063197;28;20053;-52
2023/03/31 06:23:34;;;;;;;9.60;4.37;;;10.80;99.90;;;13.96;56.06;96381.28;5060956;28;20045;-53
2023/03/31 06:26:05;;;;;;;12.47;5.00;;;10.90;99.90;;;14.01;56.02;96377.97;5061073;28;20498;-52
2023/03/31 06:28:35;;;;;;;7.47;4.97;;;10.90;99.90;;;14.02;55.96;96377.75;5063348;28;20045;-54
2023/03/31 06:31:12;;;;;;;8.10;4.07;;;10.90;99.90;;;14.06;55.73;96378.16;5064209;28;20041;-52
2023/03/31 06:33:42;;;;;;;6.37;4.73;;;10.90;99.90;;;14.05;55.84;96368.47;5058855;28;20053;-52
2023/03/31 06:36:13;;;;;;;11.07;7.50;;;10.90;99.90;;;14.06;55.82;96368.25;5061000;28;20056;-53
2023/03/31 06:38:42;;;;;;;11.60;5.67;;;10.90;99.90;;;14.08;55.83;96371.53;5064060;28;20071;-51
2023/03/31 06:41:12;;;;;;;7.97;4.90;;;10.90;99.90;;;14.04;55.97;96375.69;5062947;28;20053;-51
2023/03/31 06:43:40;;;;;;;9.77;5.60;;;10.90;99.90;;;14.04;56.14;96375.69;5061899;28;20048;-51
2023/03/31 06:46:08;;;;;;;13.53;6.67;;;10.90;99.90;;;14.04;55.93;96385.56;5064190;28;20501;-50
2023/03/31 06:48:36;;;;;;;9.53;5.73;;;10.90;99.90;;;14.01;56.21;96394.03;5061053;28;20048;-50
2023/03/31 06:51:06;;;;;;;12.63;5.43;;;10.90;99.90;;;13.97;56.34;96412.34;5055187;28;20045;-51
2023/03/31 06:53:34;;;;;;;12.07;5.10;;;10.80;99.90;;;13.99;56.44;96420.97;5062044;28;20399;-53
2023/03/31 06:56:03;;;;;;;9.73;5.60;;;10.80;99.90;;;13.97;56.67;96436.44;5063995;28;20049;-53
2023/03/31 06:58:31;;;;;;;12.87;5.87;;;10.80;99.90;;;13.90;56.97;96424.94;5061911;28;20075;-50
2023/03/31 07:01:02;;;;;;;8.27;4.90;;;10.70;99.90;;;13.87;57.14;96433.38;5060620;28;20049;-54
2023/03/31 07:03:31;;;;;;;11.30;5.37;;;10.70;99.90;;;13.86;57.09;96434.41;5061338;28;20052;-54
2023/03/31 07:05:59;;;;;;;7.93;5.07;;;10.70;99.90;;;13.88;57.21;96443.88;5063849;28;20048;-50
2023/03/31 07:08:27;;;;;;;7.73;5.03;;;10.70;99.90;;;13.83;57.42;96395.53;5062367;28;20051;-53
2023/03/31 07:10:58;;;;;;;7.47;4.53;;;10.70;99.90;;;13.80;57.40;96353.16;5058712;28;20052;-53
2023/03/31 07:13:27;;;;;;;9.43;4.63;;;10.70;99.90;;;13.84;57.38;96341.03;5060564;28;20057;-51
2023/03/31 07:15:55;;;;;;;7.63;4.20;;;10.70;99.90;;;13.86;57.26;96333.59;5063147;28;20052;-54
2023/03/31 07:18:24;;;;;;;7.47;5.47;;;10.80;99.90;;;13.89;57.60;96316.28;5062679;28;20497;-54
2023/03/31 07:20:52;;;;;;;6.07;4.47;;;10.80;99.90;;;13.93;57.08;96328.19;5058350;28;20060;-51
2023/03/31 07:23:20;;;;;;;5.77;4.13;;;10.80;99.90;;;13.90;57.36;96323.25;5059220;28;20044;-50
2023/03/31 07:25:48;;;;;;;5.93;4.37;;;10.80;99.90;;;13.89;57.59;96337.69;5063279;28;20041;-54
2023/03/31 07:28:16;;;;;;;7.53;3.83;;;10.80;99.90;;;13.92;57.32;96339.91;5062740;28;20044;-53
2023/03/31 07:30:43;;;;;;;5.43;3.13;;;10.80;99.90;;;13.78;57.37;96337.34;5058705;28;20052;-53
2023/03/31 07:33:11;;;;;;;3.97;2.83;;;10.80;99.90;;;13.72;57.15;96327.47;5059378;28;20083;-53
2023/03/31 07:35:40;;;;;;;5.00;2.93;;;10.70;99.90;;;13.45;57.45;96312.59;5062441;28;20425;-52
2023/03/31 07:38:10;;;;;;;4.17;2.50;;;10.60;99.90;;;13.34;57.45;96308.72;5060482;28;20497;-54
2023/03/31 07:40:39;;;;;;;4.03;2.17;;;10.60;99.90;;;13.39;57.11;96295.53;5060587;28;20056;-53
2023/03/31 07:43:07;;;;;;;3.43;2.13;;;10.60;99.90;;;13.49;56.92;96321.81;5058043;28;20509;-53
2023/03/31 07:45:35;;;;;;;4.03;2.30;;;10.70;99.90;;;13.47;57.13;96324.69;5061489;28;20041;-50
2023/03/31 07:48:02;;;;;;;4.30;2.67;;;10.70;99.90;;;13.51;56.98;96311.72;5061636;28;20051;-53
2023/03/31 07:50:30;;;;;;;5.20;2.63;;;10.70;99.90;;;13.22;57.73;96331.75;5061330;28;20055;-51
2023/03/31 07:53:00;;;;;;;4.87;2.27;;;10.70;99.90;;;13.28;57.27;96333.56;5056650;28;20395;-53
2023/03/31 07:55:28;;;;;;;3.00;1.83;;;10.80;99.90;;;13.33;57.25;96328.47;5060422;28;20493;-52
2023/03/31 07:57:56;;;;;;;7.73;3.73;;;10.80;99.90;;;13.47;57.14;96329.22;5062835;28;20060;-53
2023/03/31 08:00:24;;;;;;;8.77;3.90;;;10.90;99.90;;;13.75;56.60;96324.38;5062576;28;20049;-49
2023/03/31 08:02:51;;;;;;;3.83;2.20;;;11.10;99.90;;;13.99;56.20;96325.47;5058165;28;20071;-51
2023/03/31 08:05:20;;;;;;;4.57;2.33;;;11.20;99.90;;;13.97;56.03;96324.88;5059310;28;20540;-48
2023/03/31 08:07:49;;;;;;;4.73;2.60;;;11.40;99.90;;;14.26;55.48;96327.16;5051304;28;20041;-49
2023/03/31 08:10:25;;;;;;;2.83;1.90;;;11.50;99.90;;;14.31;55.40;96322.00;5038043;28;20046;-50
2023/03/31 08:12:52;;;;;;;1.63;1.40;;;11.50;99.90;;;14.25;55.48;96323.69;5051271;28;20042;-53
2023/03/31 08:15:21;;;;;;;2.90;1.20;;;11.60;99.90;;;14.34;55.31;96317.00;5059475;28;20041;-54
2023/03/31 08:17:48;;;;;;;2.40;1.20;;;11.60;99.90;;;14.20;55.46;96315.47;5058943;28;20056;-48
2023/03/31 08:20:16;;;;;;;1.73;1.43;;;11.60;99.90;;;14.49;54.82;96313.22;5057077;28;20056;-52
2023/03/31 08:22:44;;;;;;;3.60;1.58;;;11.70;99.90;;;14.57;54.90;96323.66;5061401;28;20041;-49
2023/03/31 08:25:11;;;;;;;2.53;1.27;;;11.90;99.90;;;14.61;54.90;96319.50;5062494;28;20044;-52
2023/03/31 08:27:40;;;;;;;3.83;1.50;;;11.90;99.90;;;14.63;54.70;96314.75;5060164;28;20045;-51
2023/03/31 08:30:10;;;;;;;2.38;1.60;;;12.00;99.90;;;14.80;54.51;96312.34;5059163;28;20041;-51
2023/03/31 08:32:37;;;;;;;2.92;1.38;;;12.10;99.90;;;14.91;53.77;96313.50;5060559;28;20033;-52
2023/03/31 08:35:07;;;;;;;5.45;2.33;;;12.20;99.90;;;14.90;54.04;96309.16;5062588;28;20045;-53
2023/03/31 08:37:36;;;;;;;3.80;1.70;;;12.20;99.90;;;14.93;53.95;96314.09;5061079;28;20041;-49
2023/03/31 08:40:08;;;;;;;4.15;1.55;;;12.30;99.90;;;14.71;53.50;96289.56;5057642;28;20056;-51
2023/03/31 08:42:48;;;;;;;1.90;1.52;;;12.20;99.90;;;14.90;53.19;96291.22;5060240;28;20058;-51
2023/03/31 08:45:36;;;;;;;6.40;1.75;;;12.30;99.90;;;14.63;53.38;96304.03;5061146;28;20044;-51
2023/03/31 08:48:18;;;;;;;6.18;1.65;;;12.40;99.90;;;14.91;53.56;96308.13;5057841;28;20044;-50
2023/03/31 08:50:53;;;;;;;2.20;1.95;;;12.50;99.90;;;14.97;52.55;96315.28;5061984;28;20523;-52
2023/03/31 08:53:38;;;;;;;4.57;1.88;;;12.70;99.90;;;14.80;52.15;96290.91;5060211;28;20513;-49
2023/03/31 08:56:14;;;;;;;2.08;1.40;;;12.80;96.10;;;15.10;52.35;96312.47;5051646;28;20060;-51
2023/03/31 08:58:51;;;;;;;7.28;2.00;;;12.80;98.20;;;15.16;51.48;96298.19;5060304;28;20045;-51
2023/03/31 09:01:43;;;;;;;3.55;1.52;;;12.80;94.70;;;15.00;51.51;96300.63;5062396;28;20041;-52
2023/03/31 09:04:31;;;;;;;4.57;2.00;;;12.80;93.60;;;15.16;51.16;96311.59;5057467;28;20045;-50
2023/03/31 09:07:45;;;;;;;4.32;1.50;;;12.80;92.50;;;15.13;50.36;96284.41;5051730;28;20040;-50
2023/03/31 09:10:36;;;;;;;3.47;2.58;;;12.90;90.40;;;15.01;50.42;96313.00;5053992;28;20033;-53
2023/03/31 09:13:53;;;;;;;3.08;1.48;;;12.80;87.50;;;15.03;50.30;96282.22;5050984;28;20043;-52
2023/03/31 09:16:58;;;;;;;5.90;2.00;;;12.90;86.70;;;15.16;48.92;96289.31;5054902;28;20298;-51
2023/03/31 09:19:44;;;;;;;3.30;1.40;;;13.00;82.30;;;15.25;48.54;96279.09;5055258;28;20437;-55
2023/03/31 09:22:24;;;;;;;3.50;1.30;;;13.10;79.40;;;15.36;48.39;96271.13;5061805;28;20040;-54
2023/03/31 09:25:09;;;;;;;2.47;1.20;;;13.10;78.40;;;15.28;48.00;96284.84;5054201;28;20037;-54
2023/03/31 09:27:41;;;;;;;3.35;1.40;;;13.10;75.50;;;15.31;47.98;96281.69;5062091;28;20065;-50
2023/03/31 09:30:32;;;;;;;2.38;1.25;;;13.10;75.20;;;15.29;47.52;96296.38;5064389;28;20040;-54
2023/03/31 09:33:15;;;;;;;4.43;1.45;;;13.20;73.70;;;15.44;47.74;96266.50;5054699;28;20041;-54
2023/03/31 09:35:43;;;;;;;3.97;1.40;;;13.20;74.70;;;15.44;47.36;96270.00;5046520;28;20549;-53
2023/03/31 09:38:15;;;;;;;3.20;1.52;;;13.20;74.40;;;15.47;46.21;96269.56;5065586;28;20052;-55
2023/03/31 09:40:43;;;;;;;4.90;1.60;;;13.30;70.20;;;15.64;45.99;96253.66;5063141;28;20501;-54
2023/03/31 09:43:30;;;;;;;7.68;1.98;;;13.30;69.30;;;15.62;45.35;96271.84;5049366;28;20051;-52
2023/03/31 09:45:57;;;;;;;4.38;1.67;;;13.50;65.60;;;15.81;44.54;96272.66;5059600;28;20520;-51
2023/03/31 09:49:01;;;;;;;4.63;1.77;;;13.60;65.40;;;15.91;44.08;96253.31;5063890;28;20429;-53
2023/03/31 09:51:36;;;;;;;5.22;1.77;;;13.70;64.20;;;16.12;43.80;96262.72;5063777;28;20029;-54
2023/03/31 09:54:18;;;;;;;6.18;2.10;;;13.70;63.60;;;15.88;42.83;96264.53;5060286;28;20109;-52
2023/03/31 09:56:52;;;;;;;5.55;1.92;;;13.80;60.30;;;15.84;41.71;96250.75;5063048;28;20059;-54
2023/03/31 09:59:22;;;;;;;;;;;13.80;59.00;;;16.03;42.25;96256.88;5065635;28;20048;-54
2023/03/31 10:01:55;;;;;;;5.20;1.88;;;13.70;59.90;;;16.08;42.15;96245.44;5060680;28;19921;-52
2023/03/31 10:04:32;;;;;;;3.78;1.92;;;13.80;60.00;;;16.23;42.22;96261.91;5060327;28;20502;-54
2023/03/31 10:07:02;;;;;;;6.97;2.10;;;13.80;59.90;;;16.14;42.13;96242.63;5060463;28;20048;-53
2023/03/31 10:09:33;;;;;;;3.22;1.90;;;13.90;60.50;;;16.33;40.75;96235.31;5060488;28;20044;-54
2023/03/31 10:12:19;;;;;;;6.30;1.75;;;14.00;57.00;;;16.19;40.13;96257.22;5063278;28;20489;-50
2023/03/31 10:14:49;;;;;;;5.10;2.17;;;14.00;56.20;;;16.10;41.30;96273.66;5061846;28;20049;-49
2023/03/31 10:17:26;;;;;;;5.45;1.92;;;14.00;58.10;;;16.08;41.31;96245.44;5061107;28;20045;-53
2023/03/31 10:20:07;;;;;;;5.63;1.77;;;13.90;57.70;;;16.29;41.65;96247.56;5059821;28;20037;-51
2023/03/31 10:22:43;;;;;;;5.60;2.15;;;13.90;60.20;;;16.31;41.55;96239.28;5061601;28;20516;-54
2023/03/31 10:25:22;;;;;;;4.55;1.60;;;13.90;59.60;;;16.50;41.96;96230.06;5064623;28;20413;-53
2023/03/31 10:27:55;;;;;;;7.07;2.03;;;14.00;60.60;;;16.17;41.18;96225.25;5059959;28;20041;-54
2023/03/31 10:30:34;;;;;;;3.63;2.33;;;13.90;58.30;;;16.49;41.75;96238.34;5061271;28;20049;-53
2023/03/31 10:33:14;;;;;;;9.57;2.58;;;14.00;60.70;;;16.40;43.39;96224.47;5053046;28;20037;-53
2023/03/31 10:35:57;;;;;;;4.90;2.20;;;13.90;65.40;;;16.57;43.83;96242.56;5063561;28;20052;-52
2023/03/31 10:38:43;;;;;;;9.80;1.98;;;13.90;66.90;;;16.47;41.91;96217.09;5063221;28;20051;-53
2023/03/31 10:41:17;;;;;;;4.10;1.50;;;13.90;61.60;;;16.67;41.30;96229.34;5053664;28;20041;-55
2023/03/31 10:43:54;;;;;;;2.83;1.20;;;14.10;59.20;;;16.53;40.95;96205.41;5061233;28;20072;-52
2023/03/31 10:46:48;;;;;;;3.58;1.30;;;14.10;57.40;;;16.19;41.03;96207.06;5063033;28;20047;-54
2023/03/31 10:49:26;;;;;;;3.03;1.20;;;13.90;58.30;;;16.42;41.34;96195.50;5054471;28;20033;-49